createdAt,value
2022-12-15T00:00:07.156Z,-0.30
2022-12-15T00:05:28.124Z,-0.32
2022-12-15T00:10:48.709Z,-0.34
2022-12-15T00:16:10.574Z,-0.35
2022-12-15T00:21:32.547Z,-0.34
2022-12-15T00:26:53.145Z,-0.30
2022-12-15T00:32:14.265Z,-0.30
2022-12-15T00:37:34.894Z,-0.30
2022-12-15T00:42:36.670Z,-0.23
2022-12-15T00:47:38.511Z,-0.19
2022-12-15T00:52:59.246Z,-0.24
2022-12-15T00:58:19.636Z,-0.27
2022-12-15T01:03:42.647Z,-0.29
2022-12-15T01:09:03.589Z,-0.32
2022-12-15T01:14:24.197Z,-0.36
2022-12-15T01:19:44.828Z,-0.35
2022-12-15T01:24:46.759Z,-0.37
2022-12-15T01:29:48.523Z,-0.38
2022-12-15T01:34:50.285Z,-0.33
2022-12-15T01:40:10.845Z,-0.30
2022-12-15T01:45:24.691Z,-0.25
2022-12-15T01:50:28.797Z,-0.22
2022-12-15T01:55:32.141Z,-0.20
2022-12-15T02:00:34.551Z,-0.21
2022-12-15T02:05:36.992Z,-0.11
2022-12-15T02:11:13.527Z,-0.01
2022-12-15T02:16:28.326Z,0.03
2022-12-15T02:21:42.191Z,0.09
2022-12-15T02:26:53.015Z,0.15
2022-12-15T02:32:07.806Z,0.25
2022-12-15T02:37:23.082Z,0.28
2022-12-15T02:42:28.316Z,0.27
2022-12-15T02:47:54.869Z,0.24
2022-12-15T02:53:24.485Z,0.30
2022-12-15T02:58:45.735Z,0.43
2022-12-15T03:03:49.947Z,0.41
2022-12-15T03:08:51.690Z,0.41
2022-12-15T03:13:54.339Z,0.30
2022-12-15T03:18:56.059Z,0.24
2022-12-15T03:23:57.905Z,0.18
2022-12-15T03:29:00.494Z,0.21
2022-12-15T03:34:02.350Z,0.28
2022-12-15T03:39:04.640Z,0.26
2022-12-15T03:44:06.474Z,0.25
2022-12-15T03:49:08.286Z,0.36
2022-12-15T03:54:12.551Z,0.43
2022-12-15T03:59:14.396Z,0.38
2022-12-15T04:04:16.225Z,0.31
2022-12-15T04:09:19.453Z,0.35
2022-12-15T04:14:32.613Z,0.40
2022-12-15T04:19:53.249Z,0.28
2022-12-15T04:25:13.687Z,0.33
2022-12-15T04:30:34.507Z,0.35
2022-12-15T04:35:55.160Z,0.36
2022-12-15T04:41:15.782Z,0.41
2022-12-15T04:46:36.409Z,0.38
2022-12-15T04:51:57.041Z,0.43
2022-12-15T04:57:17.627Z,0.51
2022-12-15T05:02:38.329Z,0.56
2022-12-15T05:07:59.103Z,0.49
2022-12-15T05:13:24.900Z,0.45
2022-12-15T05:18:45.281Z,0.48
2022-12-15T05:24:05.820Z,0.48
2022-12-15T05:29:26.411Z,0.46
2022-12-15T05:34:31.174Z,0.51
2022-12-15T05:39:33.152Z,0.48
2022-12-15T05:44:34.943Z,0.37
2022-12-15T05:49:36.768Z,0.28
2022-12-15T05:54:38.531Z,0.30
2022-12-15T05:59:40.323Z,0.37
2022-12-15T06:04:42.092Z,0.40
2022-12-15T06:09:43.933Z,0.35
2022-12-15T06:14:45.726Z,0.36
2022-12-15T06:19:51.566Z,0.40
2022-12-15T06:24:53.340Z,0.40
2022-12-15T06:29:55.186Z,0.40
2022-12-15T06:34:57.423Z,0.39
2022-12-15T06:39:59.175Z,0.41
2022-12-15T06:45:00.892Z,0.37
2022-12-15T06:50:02.755Z,0.36
2022-12-15T06:55:04.926Z,0.40
2022-12-15T07:00:07.540Z,0.47
2022-12-15T07:05:09.535Z,0.55
2022-12-15T07:10:11.967Z,0.61
2022-12-15T07:15:13.785Z,0.63
2022-12-15T07:20:15.574Z,0.64
2022-12-15T07:25:17.751Z,0.70
2022-12-15T07:30:19.536Z,0.80
2022-12-15T07:35:21.884Z,0.90
2022-12-15T07:40:23.794Z,0.97
2022-12-15T07:45:25.672Z,1.09
2022-12-15T07:50:29.060Z,1.16
2022-12-15T07:55:57.104Z,1.27
2022-12-15T08:00:53.363Z,1.35
2022-12-15T08:06:02.038Z,1.34
2022-12-15T08:11:11.239Z,1.40
2022-12-15T08:16:13.081Z,1.50
2022-12-15T08:21:15.030Z,1.53
2022-12-15T08:26:18.743Z,1.64
2022-12-15T08:31:22.597Z,1.67
2022-12-15T08:36:24.468Z,1.70
2022-12-15T08:41:32.465Z,1.81
2022-12-15T08:46:34.763Z,1.88
2022-12-15T08:51:36.871Z,2.04
2022-12-15T08:56:38.799Z,2.20
2022-12-15T09:01:41.808Z,2.44
2022-12-15T09:06:44.256Z,2.54
2022-12-15T09:11:50.362Z,2.71
2022-12-15T09:16:52.240Z,2.92
2022-12-15T09:21:54.120Z,3.08
2022-12-15T09:26:56.464Z,3.17
2022-12-15T09:31:58.271Z,3.27
2022-12-15T09:37:00.268Z,3.34
2022-12-15T09:42:02.232Z,3.36
2022-12-15T09:47:17.418Z,3.57
2022-12-15T09:52:25.164Z,3.74
2022-12-15T09:57:54.298Z,3.84
2022-12-15T10:03:05.118Z,3.78
2022-12-15T10:08:07.036Z,3.82
2022-12-15T10:13:24.905Z,3.96
2022-12-15T10:18:42.532Z,4.06
2022-12-15T10:23:44.422Z,4.08
2022-12-15T10:29:02.464Z,4.02
2022-12-15T10:34:18.992Z,3.90
2022-12-15T10:39:21.853Z,3.88
2022-12-15T10:44:31.857Z,3.84
2022-12-15T10:49:34.235Z,3.94
2022-12-15T10:54:43.621Z,4.02
2022-12-15T10:59:45.436Z,4.05
2022-12-15T11:05:01.275Z,4.00
2022-12-15T11:10:19.941Z,4.08
2022-12-15T11:15:21.672Z,3.98
2022-12-15T11:20:31.761Z,3.74
2022-12-15T11:25:42.158Z,3.49
2022-12-15T11:30:52.342Z,3.30
2022-12-15T11:36:22.522Z,3.20
2022-12-15T11:41:42.656Z,3.11
2022-12-15T11:46:55.110Z,3.03
2022-12-15T11:52:23.876Z,3.08
2022-12-15T11:57:25.568Z,3.05
2022-12-15T12:02:43.871Z,3.06
2022-12-15T12:08:01.031Z,3.13
2022-12-15T12:13:14.840Z,3.22
2022-12-15T12:18:31.325Z,3.31
2022-12-15T12:23:50.378Z,3.32
2022-12-15T12:29:04.165Z,3.25
2022-12-15T12:34:14.195Z,3.24
2022-12-15T12:39:23.207Z,3.25
2022-12-15T12:44:39.703Z,3.25
2022-12-15T12:49:50.261Z,3.19
2022-12-15T12:54:57.758Z,3.15
2022-12-15T13:00:12.325Z,3.07
2022-12-15T13:05:30.916Z,2.97
2022-12-15T13:10:41.806Z,2.84
2022-12-15T13:15:49.152Z,2.76
2022-12-15T13:20:58.020Z,2.64
2022-12-15T13:26:00.860Z,2.50
2022-12-15T13:31:18.785Z,2.39
2022-12-15T13:36:39.710Z,2.25
2022-12-15T13:42:15.399Z,2.04
2022-12-15T13:47:18.840Z,2.01
2022-12-15T13:52:38.100Z,2.00
2022-12-15T13:57:56.858Z,1.91
2022-12-15T14:03:12.260Z,1.87
2022-12-15T14:08:17.125Z,1.86
2022-12-15T14:13:21.529Z,1.79
2022-12-15T14:18:23.427Z,1.77
2022-12-15T14:23:29.995Z,1.74
2022-12-15T14:28:37.157Z,1.74
2022-12-15T14:33:42.092Z,1.76
2022-12-15T14:39:06.444Z,1.78
2022-12-15T14:44:37.438Z,1.82
2022-12-15T14:49:42.761Z,1.75
2022-12-15T15:00:30.506Z,1.79
2022-12-15T15:05:33.173Z,1.78
2022-12-15T15:10:35.057Z,1.74
2022-12-15T15:15:36.870Z,1.70
2022-12-15T15:20:38.755Z,1.64
2022-12-15T15:25:49.072Z,1.63
2022-12-15T15:30:52.301Z,1.64
2022-12-15T15:36:00.755Z,1.64
2022-12-15T15:41:17.921Z,1.61
2022-12-15T15:46:22.793Z,1.48
2022-12-15T15:51:26.267Z,1.27
2022-12-15T15:56:30.873Z,1.21
2022-12-15T16:01:32.891Z,1.21
2022-12-15T16:06:36.327Z,1.22
2022-12-15T16:11:38.263Z,1.28
2022-12-15T16:16:40.268Z,1.31
2022-12-15T16:21:43.015Z,1.22
2022-12-15T16:26:48.632Z,1.25
2022-12-15T16:31:50.601Z,1.20
2022-12-15T16:36:52.560Z,1.16
2022-12-15T16:41:56.230Z,1.17
2022-12-15T16:46:58.899Z,1.19
2022-12-15T16:52:01.164Z,1.19
2022-12-15T16:57:03.754Z,1.22
2022-12-15T17:02:37.504Z,1.22
2022-12-15T17:07:42.020Z,1.28
2022-12-15T17:12:44.929Z,1.25
2022-12-15T17:17:47.084Z,1.18
2022-12-15T17:22:53.385Z,1.16
2022-12-15T17:27:56.381Z,1.14
2022-12-15T17:32:58.664Z,0.96
2022-12-15T17:38:00.611Z,0.96
2022-12-15T17:43:02.379Z,0.98
2022-12-15T17:48:05.569Z,0.94
2022-12-15T17:53:10.138Z,0.98
2022-12-15T17:58:22.047Z,1.02
2022-12-15T18:03:24.451Z,0.99
2022-12-15T18:08:28.179Z,1.21
2022-12-15T18:13:35.290Z,1.32
2022-12-15T18:18:39.816Z,1.18
2022-12-15T18:23:42.134Z,1.09
2022-12-15T18:28:44.334Z,1.13
2022-12-15T18:33:46.466Z,1.07
2022-12-15T18:38:48.651Z,1.09
2022-12-15T18:43:58.571Z,1.23
2022-12-15T18:49:01.488Z,1.20
2022-12-15T18:54:03.970Z,1.13
2022-12-15T18:59:10.625Z,1.16
2022-12-15T19:04:14.507Z,1.13
2022-12-15T19:09:22.905Z,1.07
2022-12-15T19:14:43.474Z,1.08
2022-12-15T19:20:03.914Z,1.09
2022-12-15T19:25:07.307Z,1.05
2022-12-15T19:30:18.535Z,0.97
2022-12-15T19:35:20.707Z,0.93
2022-12-15T19:40:30.472Z,0.89
2022-12-15T19:45:34.098Z,0.89
2022-12-15T19:50:37.724Z,0.83
2022-12-15T19:55:40.614Z,0.79
2022-12-15T20:00:42.499Z,0.77
2022-12-15T20:05:46.795Z,0.97
2022-12-15T20:10:49.845Z,1.11
2022-12-15T20:15:51.773Z,1.08
2022-12-15T20:20:53.741Z,1.07
2022-12-15T20:25:56.366Z,1.09
2022-12-15T20:30:58.871Z,1.05
2022-12-15T20:36:00.684Z,1.05
2022-12-15T20:41:04.274Z,1.02
2022-12-15T20:46:11.205Z,1.01
2022-12-15T20:51:20.796Z,1.03
2022-12-15T20:56:23.934Z,1.03
2022-12-15T21:01:31.808Z,0.99
2022-12-15T21:06:33.736Z,0.99
2022-12-15T21:11:35.530Z,0.97
2022-12-15T21:16:37.305Z,0.90
2022-12-15T21:21:44.319Z,0.78
2022-12-15T21:26:46.768Z,0.66
2022-12-15T21:31:49.158Z,0.72
2022-12-15T21:36:55.043Z,0.61
2022-12-15T21:42:04.957Z,0.73
2022-12-15T21:47:52.049Z,0.70
2022-12-15T21:52:54.336Z,0.77
2022-12-15T21:57:57.570Z,0.81
2022-12-15T22:02:59.400Z,0.82
2022-12-15T22:08:13.084Z,0.86
2022-12-15T22:13:21.212Z,0.90
2022-12-15T22:18:23.703Z,0.92
2022-12-15T22:23:25.488Z,0.95
2022-12-15T22:28:28.560Z,1.06
2022-12-15T22:33:31.662Z,0.98
2022-12-15T22:38:33.793Z,0.99
2022-12-15T22:43:41.676Z,1.02
2022-12-15T22:48:51.926Z,1.15
2022-12-15T22:53:53.702Z,1.09
2022-12-15T22:59:05.836Z,1.11
2022-12-15T23:04:07.705Z,1.16
2022-12-15T23:09:10.120Z,1.15
2022-12-15T23:14:18.043Z,1.15
2022-12-15T23:19:28.773Z,1.18
2022-12-15T23:24:31.363Z,1.24
2022-12-15T23:29:33.077Z,1.26
2022-12-15T23:34:34.933Z,1.27
2022-12-15T23:39:36.667Z,1.35
2022-12-15T23:44:38.620Z,1.39
2022-12-15T23:49:40.437Z,1.46
2022-12-15T23:54:42.210Z,1.45
2022-12-15T23:59:44.218Z,1.51
